sensor_id;sensor_type;location;lat;lon;timestamp;pressure;altitude;pressure_sealevel;temperature;humidity
56944;BME280;42848;42.524;12.052;2022-08-03T00:02:24;96681.59;;;25.64;61.52
56944;BME280;42848;42.524;12.052;2022-08-03T00:04:49;96681.59;;;25.64;61.52
56944;BME280;42848;42.524;12.052;2022-08-03T00:07:15;96678.31;;;25.42;64.15
56944;BME280;42848;42.524;12.052;2022-08-03T00:09:42;96678.44;;;25.35;66.42
56944;BME280;42848;42.524;12.052;2022-08-03T00:12:08;96673.31;;;24.99;60.34
56944;BME280;42848;42.524;12.052;2022-08-03T00:14:33;96670.91;;;25.01;60.36
56944;BME280;42848;42.524;12.052;2022-08-03T00:16:59;96670.63;;;25.26;60.00
56944;BME280;42848;42.524;12.052;2022-08-03T00:19:25;96666.47;;;25.38;62.68
56944;BME280;42848;42.524;12.052;2022-08-03T00:21:51;96669.16;;;25.45;64.29
56944;BME280;42848;42.524;12.052;2022-08-03T00:24:16;96669.84;;;25.26;67.05
56944;BME280;42848;42.524;12.052;2022-08-03T00:26:42;96670.78;;;25.15;65.88
56944;BME280;42848;42.524;12.052;2022-08-03T00:29:08;96670.56;;;25.30;63.86
56944;BME280;42848;42.524;12.052;2022-08-03T00:31:33;96678.75;;;25.10;64.30
56944;BME280;42848;42.524;12.052;2022-08-03T00:33:59;96671.03;;;25.24;64.14
56944;BME280;42848;42.524;12.052;2022-08-03T00:36:25;96668.91;;;25.36;63.90
56944;BME280;42848;42.524;12.052;2022-08-03T00:38:51;96665.50;;;25.24;64.92
56944;BME280;42848;42.524;12.052;2022-08-03T00:41:17;96677.63;;;25.07;64.47
56944;BME280;42848;42.524;12.052;2022-08-03T00:43:42;96667.47;;;24.90;67.47
56944;BME280;42848;42.524;12.052;2022-08-03T00:46:09;96666.94;;;25.02;66.73
56944;BME280;42848;42.524;12.052;2022-08-03T00:48:35;96668.63;;;24.92;66.19
56944;BME280;42848;42.524;12.052;2022-08-03T00:51:01;96664.22;;;24.95;65.04
56944;BME280;42848;42.524;12.052;2022-08-03T00:53:27;96664.84;;;24.76;68.59
56944;BME280;42848;42.524;12.052;2022-08-03T00:55:53;96662.44;;;24.78;67.57
56944;BME280;42848;42.524;12.052;2022-08-03T00:58:19;96668.75;;;24.82;67.55
56944;BME280;42848;42.524;12.052;2022-08-03T01:00:44;96665.22;;;24.78;66.29
56944;BME280;42848;42.524;12.052;2022-08-03T01:03:10;96662.44;;;24.78;67.08
56944;BME280;42848;42.524;12.052;2022-08-03T01:08:22;96664.56;;;24.66;67.95
56944;BME280;42848;42.524;12.052;2022-08-03T01:13:30;96655.75;;;24.37;68.15
56944;BME280;42848;42.524;12.052;2022-08-03T01:16:01;96666.47;;;24.73;66.96
56944;BME280;42848;42.524;12.052;2022-08-03T01:18:44;96668.56;;;24.65;68.26
56944;BME280;42848;42.524;12.052;2022-08-03T01:21:26;96661.63;;;24.47;69.45
56944;BME280;42848;42.524;12.052;2022-08-03T01:27:17;96661.56;;;24.50;70.45
56944;BME280;42848;42.524;12.052;2022-08-03T01:29:58;96660.59;;;24.26;72.08
56944;BME280;42848;42.524;12.052;2022-08-03T01:32:34;96662.69;;;24.56;70.84
56944;BME280;42848;42.524;12.052;2022-08-03T01:35:05;96657.00;;;24.71;69.83
56944;BME280;42848;42.524;12.052;2022-08-03T01:37:37;96661.88;;;24.59;69.92
56944;BME280;42848;42.524;12.052;2022-08-03T01:40:05;96660.88;;;24.43;71.25
56944;BME280;42848;42.524;12.052;2022-08-03T01:42:31;96657.31;;;24.42;71.26
56944;BME280;42848;42.524;12.052;2022-08-03T01:44:59;96654.97;;;24.37;72.02
56944;BME280;42848;42.524;12.052;2022-08-03T01:47:26;96655.72;;;24.41;71.87
56944;BME280;42848;42.524;12.052;2022-08-03T01:49:55;96662.47;;;24.40;72.10
56944;BME280;42848;42.524;12.052;2022-08-03T01:52:23;96659.75;;;24.36;73.22
56944;BME280;42848;42.524;12.052;2022-08-03T01:54:51;96648.09;;;24.07;75.36
56944;BME280;42848;42.524;12.052;2022-08-03T01:57:18;96655.22;;;24.08;75.45
56944;BME280;42848;42.524;12.052;2022-08-03T01:59:48;96646.13;;;24.04;75.87
56944;BME280;42848;42.524;12.052;2022-08-03T02:02:15;96648.72;;;24.26;74.90
56944;BME280;42848;42.524;12.052;2022-08-03T02:04:42;96650.34;;;24.20;75.38
56944;BME280;42848;42.524;12.052;2022-08-03T02:07:10;96648.72;;;24.26;75.34
56944;BME280;42848;42.524;12.052;2022-08-03T02:09:38;96657.31;;;24.42;74.56
56944;BME280;42848;42.524;12.052;2022-08-03T02:12:08;96651.38;;;24.40;74.96
56944;BME280;42848;42.524;12.052;2022-08-03T02:14:36;96648.00;;;24.18;76.35
56944;BME280;42848;42.524;12.052;2022-08-03T02:17:04;96642.34;;;24.29;76.33
56944;BME280;42848;42.524;12.052;2022-08-03T02:19:32;96644.81;;;24.20;77.20
56944;BME280;42848;42.524;12.052;2022-08-03T02:21:59;96642.97;;;24.47;75.56
56944;BME280;42848;42.524;12.052;2022-08-03T02:24:25;96642.31;;;24.36;76.85
56944;BME280;42848;42.524;12.052;2022-08-03T02:26:53;96638.78;;;24.28;77.69
56944;BME280;42848;42.524;12.052;2022-08-03T02:29:25;96643.59;;;24.21;78.63
56944;BME280;42848;42.524;12.052;2022-08-03T02:31:53;96641.94;;;24.34;78.68
56944;BME280;42848;42.524;12.052;2022-08-03T02:34:24;96644.72;;;24.34;79.35
56944;BME280;42848;42.524;12.052;2022-08-03T02:36:52;96646.31;;;24.28;79.82
56944;BME280;42848;42.524;12.052;2022-08-03T02:39:20;96642.19;;;24.05;82.32
56944;BME280;42848;42.524;12.052;2022-08-03T02:41:51;96638.38;;;23.85;85.02
56944;BME280;42848;42.524;12.052;2022-08-03T02:44:24;96635.56;;;23.92;85.30
56944;BME280;42848;42.524;12.052;2022-08-03T02:46:54;96643.59;;;23.76;87.56
56944;BME280;42848;42.524;12.052;2022-08-03T02:49:20;96638.94;;;23.69;88.52
56944;BME280;42848;42.524;12.052;2022-08-03T02:51:47;96634.16;;;23.70;88.85
56944;BME280;42848;42.524;12.052;2022-08-03T02:54:17;96641.94;;;23.89;87.41
56944;BME280;42848;42.524;12.052;2022-08-03T02:56:46;96626.19;;;23.79;88.35
56944;BME280;42848;42.524;12.052;2022-08-03T02:59:13;96632.47;;;23.83;88.49
56944;BME280;42848;42.524;12.052;2022-08-03T03:01:41;96635.69;;;23.78;89.49
56944;BME280;42848;42.524;12.052;2022-08-03T03:04:09;96630.63;;;23.69;91.03
56944;BME280;42848;42.524;12.052;2022-08-03T03:06:36;96623.41;;;23.75;90.96
56944;BME280;42848;42.524;12.052;2022-08-03T03:09:03;96628.63;;;23.70;92.42
56944;BME280;42848;42.524;12.052;2022-08-03T03:11:29;96630.91;;;23.82;91.72
56944;BME280;42848;42.524;12.052;2022-08-03T03:13:56;96635.78;;;23.64;93.97
56944;BME280;42848;42.524;12.052;2022-08-03T03:16:25;96636.66;;;23.50;95.65
56944;BME280;42848;42.524;12.052;2022-08-03T03:18:52;96631.84;;;23.58;95.50
56944;BME280;42848;42.524;12.052;2022-08-03T03:21:19;96631.47;;;23.55;95.89
56944;BME280;42848;42.524;12.052;2022-08-03T03:23:46;96624.34;;;23.54;96.39
56944;BME280;42848;42.524;12.052;2022-08-03T03:26:13;96623.19;;;23.52;96.81
56944;BME280;42848;42.524;12.052;2022-08-03T03:28:40;96627.13;;;23.54;97.02
56944;BME280;42848;42.524;12.052;2022-08-03T03:31:06;96631.13;;;23.50;97.83
56944;BME280;42848;42.524;12.052;2022-08-03T03:33:33;96625.63;;;23.39;99.36
56944;BME280;42848;42.524;12.052;2022-08-03T03:36:00;96635.19;;;23.35;100.00
56944;BME280;42848;42.524;12.052;2022-08-03T03:38:26;96629.63;;;23.31;100.00
56944;BME280;42848;42.524;12.052;2022-08-03T03:40:52;96632.81;;;23.30;100.00
56944;BME280;42848;42.524;12.052;2022-08-03T03:43:17;96632.50;;;23.17;100.00
56944;BME280;42848;42.524;12.052;2022-08-03T03:45:44;96636.06;;;23.17;100.00
56944;BME280;42848;42.524;12.052;2022-08-03T03:48:11;96634.44;;;23.27;100.00
56944;BME280;42848;42.524;12.052;2022-08-03T03:50:38;96639.91;;;23.41;100.00
56944;BME280;42848;42.524;12.052;2022-08-03T03:53:08;96646.25;;;23.31;100.00
56944;BME280;42848;42.524;12.052;2022-08-03T03:55:38;96640.75;;;23.27;100.00
56944;BME280;42848;42.524;12.052;2022-08-03T03:58:05;96643.97;;;23.19;100.00
56944;BME280;42848;42.524;12.052;2022-08-03T04:00:32;96644.78;;;23.12;100.00
56944;BME280;42848;42.524;12.052;2022-08-03T04:02:57;96642.03;;;23.16;100.00
56944;BME280;42848;42.524;12.052;2022-08-03T04:05:23;96641.59;;;23.17;100.00
56944;BME280;42848;42.524;12.052;2022-08-03T04:08:17;96639.25;;;23.16;100.00
56944;BME280;42848;42.524;12.052;2022-08-03T04:11:10;96646.44;;;23.03;100.00
56944;BME280;42848;42.524;12.052;2022-08-03T04:13:41;96648.31;;;23.20;100.00
56944;BME280;42848;42.524;12.052;2022-08-03T04:16:11;96640.81;;;23.13;100.00
56944;BME280;42848;42.524;12.052;2022-08-03T04:18:40;96639.25;;;23.16;100.00
56944;BME280;42848;42.524;12.052;2022-08-03T04:21:10;96642.44;;;23.11;100.00
56944;BME280;42848;42.524;12.052;2022-08-03T04:23:42;96642.38;;;23.25;100.00
56944;BME280;42848;42.524;12.052;2022-08-03T04:26:11;96648.25;;;23.34;100.00
56944;BME280;42848;42.524;12.052;2022-08-03T04:28:40;96647.81;;;23.39;100.00
56944;BME280;42848;42.524;12.052;2022-08-03T04:31:07;96652.91;;;23.44;100.00
56944;BME280;42848;42.524;12.052;2022-08-03T04:33:36;96652.97;;;23.37;100.00
56944;BME280;42848;42.524;12.052;2022-08-03T04:36:05;96656.88;;;23.43;100.00
56944;BME280;42848;42.524;12.052;2022-08-03T04:38:50;96659.75;;;23.29;100.00
56944;BME280;42848;42.524;12.052;2022-08-03T04:41:18;96661.69;;;23.36;100.00
56944;BME280;42848;42.524;12.052;2022-08-03T04:43:46;96661.19;;;23.51;100.00
56944;BME280;42848;42.524;12.052;2022-08-03T04:46:14;96665.06;;;23.68;100.00
56944;BME280;42848;42.524;12.052;2022-08-03T04:48:40;96665.72;;;23.87;100.00
56944;BME280;42848;42.524;12.052;2022-08-03T04:51:07;96673.72;;;23.74;100.00
56944;BME280;42848;42.524;12.052;2022-08-03T04:53:36;96678.41;;;23.84;100.00
56944;BME280;42848;42.524;12.052;2022-08-03T04:56:05;96676.19;;;23.61;100.00
56944;BME280;42848;42.524;12.052;2022-08-03T04:58:31;96673.84;;;23.52;100.00
56944;BME280;42848;42.524;12.052;2022-08-03T05:00:57;96686.53;;;23.46;100.00
56944;BME280;42848;42.524;12.052;2022-08-03T05:03:22;96686.59;;;23.39;100.00
56944;BME280;42848;42.524;12.052;2022-08-03T05:05:48;96688.56;;;23.39;100.00
56944;BME280;42848;42.524;12.052;2022-08-03T05:08:14;96690.56;;;23.38;100.00
56944;BME280;42848;42.524;12.052;2022-08-03T05:10:40;96688.63;;;23.28;100.00
56944;BME280;42848;42.524;12.052;2022-08-03T05:13:05;96695.31;;;23.41;100.00
56944;BME280;42848;42.524;12.052;2022-08-03T05:15:36;96696.50;;;23.37;100.00
56944;BME280;42848;42.524;12.052;2022-08-03T05:18:02;96702.44;;;23.35;100.00
56944;BME280;42848;42.524;12.052;2022-08-03T05:20:27;96685.78;;;23.39;100.00
56944;BME280;42848;42.524;12.052;2022-08-03T05:22:53;96695.34;;;23.34;100.00
56944;BME280;42848;42.524;12.052;2022-08-03T05:25:19;96695.69;;;23.40;100.00
56944;BME280;42848;42.524;12.052;2022-08-03T05:27:44;96694.47;;;23.44;100.00
56944;BME280;42848;42.524;12.052;2022-08-03T05:30:10;96696.06;;;23.45;100.00
56944;BME280;42848;42.524;12.052;2022-08-03T05:32:36;96698.81;;;23.45;100.00
56944;BME280;42848;42.524;12.052;2022-08-03T05:35:02;96699.19;;;23.47;100.00
56944;BME280;42848;42.524;12.052;2022-08-03T05:37:28;96697.97;;;23.55;100.00
56944;BME280;42848;42.524;12.052;2022-08-03T05:39:53;96699.91;;;23.66;100.00
56944;BME280;42848;42.524;12.052;2022-08-03T05:42:19;96705.72;;;23.86;100.00
56944;BME280;42848;42.524;12.052;2022-08-03T05:44:44;96699.09;;;23.72;100.00
56944;BME280;42848;42.524;12.052;2022-08-03T05:47:10;96706.50;;;23.86;100.00
56944;BME280;42848;42.524;12.052;2022-08-03T05:49:36;96704.53;;;23.83;100.00
56944;BME280;42848;42.524;12.052;2022-08-03T05:52:02;96709.25;;;23.86;100.00
56944;BME280;42848;42.524;12.052;2022-08-03T05:54:28;96704.50;;;23.90;100.00
56944;BME280;42848;42.524;12.052;2022-08-03T05:56:53;96710.00;;;23.97;100.00
56944;BME280;42848;42.524;12.052;2022-08-03T05:59:19;96718.69;;;23.99;100.00
56944;BME280;42848;42.524;12.052;2022-08-03T06:01:46;96708.72;;;24.09;100.00
56944;BME280;42848;42.524;12.052;2022-08-03T06:04:12;96711.38;;;24.20;100.00
56944;BME280;42848;42.524;12.052;2022-08-03T06:06:37;96712.53;;;24.22;99.05
56944;BME280;42848;42.524;12.052;2022-08-03T06:09:03;96712.97;;;24.21;99.25
56944;BME280;42848;42.524;12.052;2022-08-03T06:11:29;96711.28;;;24.30;98.56
56944;BME280;42848;42.524;12.052;2022-08-03T06:13:55;96714.34;;;24.47;97.85
56944;BME280;42848;42.524;12.052;2022-08-03T06:16:21;96712.13;;;24.68;96.99
56944;BME280;42848;42.524;12.052;2022-08-03T06:18:46;96720.88;;;24.67;94.92
56944;BME280;42848;42.524;12.052;2022-08-03T06:21:12;96726.09;;;24.61;92.97
56944;BME280;42848;42.524;12.052;2022-08-03T06:23:38;96726.41;;;24.71;92.96
56944;BME280;42848;42.524;12.052;2022-08-03T06:26:03;96725.09;;;24.82;92.04
56944;BME280;42848;42.524;12.052;2022-08-03T06:28:29;96717.84;;;24.92;90.18
56944;BME280;42848;42.524;12.052;2022-08-03T06:30:55;96725.75;;;24.93;89.72
56944;BME280;42848;42.524;12.052;2022-08-03T06:33:20;96726.47;;;25.01;88.49
56944;BME280;42848;42.524;12.052;2022-08-03T06:35:46;96731.22;;;25.04;89.24
56944;BME280;42848;42.524;12.052;2022-08-03T06:38:12;96728.88;;;24.99;89.16
56944;BME280;42848;42.524;12.052;2022-08-03T06:40:37;96734.31;;;25.10;89.39
56944;BME280;42848;42.524;12.052;2022-08-03T06:43:05;96740.59;;;25.17;88.33
56944;BME280;42848;42.524;12.052;2022-08-03T06:45:31;96729.00;;;25.22;88.69
56944;BME280;42848;42.524;12.052;2022-08-03T06:48:06;96741.69;;;25.23;88.54
56944;BME280;42848;42.524;12.052;2022-08-03T06:50:33;96741.25;;;25.29;89.48
56944;BME280;42848;42.524;12.052;2022-08-03T06:52:59;96741.56;;;25.34;88.28
56944;BME280;42848;42.524;12.052;2022-08-03T06:55:26;96747.53;;;25.33;87.46
56944;BME280;42848;42.524;12.052;2022-08-03T06:57:51;96745.13;;;25.35;88.47
56944;BME280;42848;42.524;12.052;2022-08-03T07:00:17;96744.66;;;25.40;86.38
56944;BME280;42848;42.524;12.052;2022-08-03T07:02:43;96743.44;;;25.41;87.34
56944;BME280;42848;42.524;12.052;2022-08-03T07:05:09;96754.41;;;25.55;87.87
56944;BME280;42848;42.524;12.052;2022-08-03T07:07:36;96746.69;;;25.66;86.53
56944;BME280;42848;42.524;12.052;2022-08-03T07:10:02;96752.63;;;25.68;84.92
56944;BME280;42848;42.524;12.052;2022-08-03T07:12:29;96745.22;;;25.58;84.92
56944;BME280;42848;42.524;12.052;2022-08-03T07:14:56;96744.22;;;25.75;83.91
56944;BME280;42848;42.524;12.052;2022-08-03T07:17:22;96745.41;;;25.74;82.65
56944;BME280;42848;42.524;12.052;2022-08-03T07:19:48;96749.25;;;25.84;83.31
56944;BME280;42848;42.524;12.052;2022-08-03T07:22:14;96754.03;;;25.84;81.29
56944;BME280;42848;42.524;12.052;2022-08-03T07:24:40;96750.63;;;25.99;80.39
56944;BME280;42848;42.524;12.052;2022-08-03T07:27:09;96756.13;;;26.03;80.64
56944;BME280;42848;42.524;12.052;2022-08-03T07:29:36;96753.34;;;26.03;79.36
56944;BME280;42848;42.524;12.052;2022-08-03T07:32:05;96751.19;;;26.14;81.13
56944;BME280;42848;42.524;12.052;2022-08-03T07:34:31;96755.16;;;26.13;79.13
56944;BME280;42848;42.524;12.052;2022-08-03T07:36:56;96755.84;;;26.21;81.06
56944;BME280;42848;42.524;12.052;2022-08-03T07:39:22;96750.28;;;26.21;75.71
56944;BME280;42848;42.524;12.052;2022-08-03T07:41:48;96764.97;;;26.21;77.90
56944;BME280;42848;42.524;12.052;2022-08-03T07:44:16;96763.16;;;26.11;78.59
56944;BME280;42848;42.524;12.052;2022-08-03T07:46:43;96761.63;;;26.33;77.35
56944;BME280;42848;42.524;12.052;2022-08-03T07:49:08;96754.09;;;26.30;75.79
56944;BME280;42848;42.524;12.052;2022-08-03T07:51:34;96764.44;;;26.30;78.92
56944;BME280;42848;42.524;12.052;2022-08-03T07:54:00;96756.25;;;26.46;79.33
56944;BME280;42848;42.524;12.052;2022-08-03T07:56:26;96764.06;;;26.55;79.92
56944;BME280;42848;42.524;12.052;2022-08-03T07:58:52;96759.94;;;26.63;81.13
56944;BME280;42848;42.524;12.052;2022-08-03T08:01:18;96757.59;;;26.61;79.56
56944;BME280;42848;42.524;12.052;2022-08-03T08:03:48;96766.00;;;26.58;79.75
56944;BME280;42848;42.524;12.052;2022-08-03T08:06:14;96760.66;;;26.67;79.53
56944;BME280;42848;42.524;12.052;2022-08-03T08:08:40;96760.31;;;26.65;78.14
56944;BME280;42848;42.524;12.052;2022-08-03T08:11:06;96756.19;;;26.50;76.22
56944;BME280;42848;42.524;12.052;2022-08-03T08:13:32;96758.22;;;26.69;83.36
56944;BME280;42848;42.524;12.052;2022-08-03T08:15:59;96762.03;;;26.79;81.80
56944;BME280;42848;42.524;12.052;2022-08-03T08:18:25;96764.25;;;26.87;84.17
56944;BME280;42848;42.524;12.052;2022-08-03T08:20:53;96757.31;;;26.76;83.03
56944;BME280;42848;42.524;12.052;2022-08-03T08:23:19;96759.31;;;26.99;80.03
56944;BME280;42848;42.524;12.052;2022-08-03T08:25:49;96757.00;;;26.93;78.48
56944;BME280;42848;42.524;12.052;2022-08-03T08:28:19;96759.59;;;27.04;80.23
56944;BME280;42848;42.524;12.052;2022-08-03T08:30:45;96759.06;;;26.89;79.04
56944;BME280;42848;42.524;12.052;2022-08-03T08:33:12;96755.91;;;27.11;82.20
56944;BME280;42848;42.524;12.052;2022-08-03T08:35:38;96763.78;;;27.36;81.16
56944;BME280;42848;42.524;12.052;2022-08-03T08:38:03;96762.91;;;27.39;76.58
56944;BME280;42848;42.524;12.052;2022-08-03T08:40:29;96759.19;;;27.45;78.31
56944;BME280;42848;42.524;12.052;2022-08-03T08:42:55;96768.97;;;27.54;75.14
56944;BME280;42848;42.524;12.052;2022-08-03T08:45:21;96760.75;;;27.46;75.14
56944;BME280;42848;42.524;12.052;2022-08-03T08:47:47;96767.22;;;27.43;74.59
56944;BME280;42848;42.524;12.052;2022-08-03T08:50:19;96773.69;;;27.57;75.19
56944;BME280;42848;42.524;12.052;2022-08-03T08:52:48;96769.63;;;27.41;73.70
56944;BME280;42848;42.524;12.052;2022-08-03T08:55:18;96770.34;;;27.45;76.34
56944;BME280;42848;42.524;12.052;2022-08-03T08:57:51;96773.97;;;27.42;73.24
56944;BME280;42848;42.524;12.052;2022-08-03T09:00:17;96776.75;;;27.42;70.24
56944;BME280;42848;42.524;12.052;2022-08-03T09:02:44;96767.03;;;27.50;72.46
56944;BME280;42848;42.524;12.052;2022-08-03T09:05:16;96773.13;;;27.45;70.29
56944;BME280;42848;42.524;12.052;2022-08-03T09:07:43;96766.19;;;27.54;71.03
56944;BME280;42848;42.524;12.052;2022-08-03T09:10:10;96775.78;;;27.53;73.85
56944;BME280;42848;42.524;12.052;2022-08-03T09:12:44;96770.53;;;27.74;75.32
56944;BME280;42848;42.524;12.052;2022-08-03T09:15:31;96770.84;;;27.80;74.50
56944;BME280;42848;42.524;12.052;2022-08-03T09:18:02;96774.00;;;27.98;70.88
56944;BME280;42848;42.524;12.052;2022-08-03T09:20:32;96772.41;;;27.97;74.76
56944;BME280;42848;42.524;12.052;2022-08-03T09:23:06;96773.84;;;28.22;71.91
56944;BME280;42848;42.524;12.052;2022-08-03T09:25:38;96771.59;;;28.17;71.13
56944;BME280;42848;42.524;12.052;2022-08-03T09:28:11;96783.66;;;28.30;69.75
56944;BME280;42848;42.524;12.052;2022-08-03T09:30:40;96778.56;;;28.09;68.69
56944;BME280;42848;42.524;12.052;2022-08-03T09:33:12;96776.09;;;28.11;68.75
56944;BME280;42848;42.524;12.052;2022-08-03T09:35:47;96774.38;;;28.17;70.06
56944;BME280;42848;42.524;12.052;2022-08-03T09:38:17;96784.66;;;28.20;66.97
56944;BME280;42848;42.524;12.052;2022-08-03T09:40:44;96779.16;;;28.16;66.58
56944;BME280;42848;42.524;12.052;2022-08-03T09:43:11;96773.38;;;28.07;66.01
56944;BME280;42848;42.524;12.052;2022-08-03T09:45:39;96770.38;;;28.50;68.24
56944;BME280;42848;42.524;12.052;2022-08-03T09:48:22;96769.69;;;28.63;67.50
56944;BME280;42848;42.524;12.052;2022-08-03T09:50:50;96770.91;;;28.29;62.51
56944;BME280;42848;42.524;12.052;2022-08-03T09:53:17;96776.69;;;28.38;64.21
56944;BME280;42848;42.524;12.052;2022-08-03T09:55:58;96771.16;;;28.34;65.08
56944;BME280;42848;42.524;12.052;2022-08-03T09:58:25;96768.09;;;28.78;65.87
56944;BME280;42848;42.524;12.052;2022-08-03T10:03:17;96766.91;;;28.63;61.87
56944;BME280;42848;42.524;12.052;2022-08-03T10:05:42;96758.84;;;28.81;65.45
56944;BME280;42848;42.524;12.052;2022-08-03T10:08:17;96766.63;;;28.57;62.06
56944;BME280;42848;42.524;12.052;2022-08-03T10:10:45;96768.47;;;28.64;58.43
56944;BME280;42848;42.524;12.052;2022-08-03T10:13:16;96757.31;;;28.64;60.16
56944;BME280;42848;42.524;12.052;2022-08-03T10:15:42;96756.47;;;28.96;62.52
56944;BME280;42848;42.524;12.052;2022-08-03T10:18:08;96750.88;;;28.96;60.02
56944;BME280;42848;42.524;12.052;2022-08-03T10:20:38;96751.75;;;29.22;61.52
56944;BME280;42848;42.524;12.052;2022-08-03T10:23:07;96758.47;;;29.24;57.12
56944;BME280;42848;42.524;12.052;2022-08-03T10:25:37;96759.63;;;28.81;55.76
56944;BME280;42848;42.524;12.052;2022-08-03T10:28:07;96749.25;;;28.66;57.09
56944;BME280;42848;42.524;12.052;2022-08-03T10:30:39;96756.41;;;28.67;57.05
56944;BME280;42848;42.524;12.052;2022-08-03T10:33:12;96744.78;;;28.84;57.32
56944;BME280;42848;42.524;12.052;2022-08-03T10:35:40;96742.25;;;28.90;58.60
56944;BME280;42848;42.524;12.052;2022-08-03T10:38:11;96747.47;;;28.88;56.12
56944;BME280;42848;42.524;12.052;2022-08-03T10:40:41;96740.47;;;28.96;56.59
56944;BME280;42848;42.524;12.052;2022-08-03T10:43:19;96735.03;;;29.05;62.01
56944;BME280;42848;42.524;12.052;2022-08-03T10:45:46;96734.44;;;28.98;64.39
56944;BME280;42848;42.524;12.052;2022-08-03T10:48:12;96735.38;;;29.07;63.72
56944;BME280;42848;42.524;12.052;2022-08-03T10:50:38;96729.59;;;29.14;59.03
56944;BME280;42848;42.524;12.052;2022-08-03T10:53:07;96730.28;;;29.18;62.11
56944;BME280;42848;42.524;12.052;2022-08-03T11:01:04;96730.44;;;28.99;60.19
56944;BME280;42848;42.524;12.052;2022-08-03T11:03:31;96728.81;;;29.14;60.36
56944;BME280;42848;42.524;12.052;2022-08-03T11:06:20;96721.16;;;29.43;61.10
56944;BME280;42848;42.524;12.052;2022-08-03T11:08:47;96716.47;;;29.40;60.21
56944;BME280;42848;42.524;12.052;2022-08-03T11:14:05;96714.84;;;29.56;52.43
56944;BME280;42848;42.524;12.052;2022-08-03T11:19:07;96722.22;;;29.50;54.57
56944;BME280;42848;42.524;12.052;2022-08-03T11:27:29;96719.53;;;29.59;55.11
56944;BME280;42848;42.524;12.052;2022-08-03T11:30:04;96717.53;;;29.59;50.45
56944;BME280;42848;42.524;12.052;2022-08-03T11:35:10;96713.81;;;29.62;50.69
56944;BME280;42848;42.524;12.052;2022-08-03T11:38:03;96702.38;;;29.44;47.81
56944;BME280;42848;42.524;12.052;2022-08-03T11:40:51;96696.81;;;29.69;48.98
56944;BME280;42848;42.524;12.052;2022-08-03T11:48:33;96698.53;;;29.92;49.31
56944;BME280;42848;42.524;12.052;2022-08-03T11:51:00;96697.06;;;30.13;48.22
56944;BME280;42848;42.524;12.052;2022-08-03T11:53:27;96695.94;;;30.23;48.88
56944;BME280;42848;42.524;12.052;2022-08-03T11:55:56;96685.09;;;30.60;48.60
56944;BME280;42848;42.524;12.052;2022-08-03T11:58:22;96689.38;;;30.65;43.24
56944;BME280;42848;42.524;12.052;2022-08-03T12:00:49;96686.16;;;30.41;42.72
56944;BME280;42848;42.524;12.052;2022-08-03T12:03:17;96684.53;;;30.65;41.39
56944;BME280;42848;42.524;12.052;2022-08-03T12:05:52;96677.34;;;30.64;40.34
56944;BME280;42848;42.524;12.052;2022-08-03T12:08:38;96683.31;;;30.88;39.60
56944;BME280;42848;42.524;12.052;2022-08-03T12:11:07;96685.66;;;30.90;39.46
56944;BME280;42848;42.524;12.052;2022-08-03T12:16:06;96677.47;;;30.95;36.05
56944;BME280;42848;42.524;12.052;2022-08-03T12:18:34;96669.81;;;30.96;35.23
56944;BME280;42848;42.524;12.052;2022-08-03T12:21:10;96664.06;;;30.99;33.75
56944;BME280;42848;42.524;12.052;2022-08-03T12:23:37;96672.38;;;31.25;34.28
56944;BME280;42848;42.524;12.052;2022-08-03T12:26:07;96670.22;;;31.07;34.64
56944;BME280;42848;42.524;12.052;2022-08-03T12:28:34;96671.19;;;31.13;33.41
56944;BME280;42848;42.524;12.052;2022-08-03T12:31:03;96674.31;;;31.15;34.79
56944;BME280;42848;42.524;12.052;2022-08-03T12:33:31;96669.16;;;31.35;35.41
56944;BME280;42848;42.524;12.052;2022-08-03T12:36:06;96669.00;;;31.30;34.00
56944;BME280;42848;42.524;12.052;2022-08-03T12:38:34;96666.16;;;31.52;33.96
56944;BME280;42848;42.524;12.052;2022-08-03T12:41:09;96668.13;;;31.73;34.28
56944;BME280;42848;42.524;12.052;2022-08-03T12:43:50;96666.34;;;31.97;33.55
56944;BME280;42848;42.524;12.052;2022-08-03T12:46:18;96663.41;;;31.92;33.38
56944;BME280;42848;42.524;12.052;2022-08-03T12:49:03;96665.84;;;31.90;33.25
56944;BME280;42848;42.524;12.052;2022-08-03T12:51:32;96660.97;;;32.21;34.46
56944;BME280;42848;42.524;12.052;2022-08-03T12:53:58;96665.13;;;31.67;35.10
56944;BME280;42848;42.524;12.052;2022-08-03T12:56:24;96667.56;;;31.25;34.52
56944;BME280;42848;42.524;12.052;2022-08-03T12:58:50;96660.06;;;31.22;35.97
56944;BME280;42848;42.524;12.052;2022-08-03T13:01:16;96650.97;;;31.18;37.34
56944;BME280;42848;42.524;12.052;2022-08-03T13:03:44;96650.03;;;31.43;37.36
56944;BME280;42848;42.524;12.052;2022-08-03T13:06:16;96653.06;;;31.89;37.10
56944;BME280;42848;42.524;12.052;2022-08-03T13:08:42;96657.66;;;32.14;37.18
56944;BME280;42848;42.524;12.052;2022-08-03T13:11:25;96652.59;;;31.90;36.39
56944;BME280;42848;42.524;12.052;2022-08-03T13:13:52;96647.91;;;31.87;36.59
56944;BME280;42848;42.524;12.052;2022-08-03T13:16:19;96654.16;;;31.82;36.74
56944;BME280;42848;42.524;12.052;2022-08-03T13:18:47;96648.72;;;31.57;37.28
56944;BME280;42848;42.524;12.052;2022-08-03T13:21:15;96646.94;;;31.81;38.51
56944;BME280;42848;42.524;12.052;2022-08-03T13:23:41;96644.78;;;31.76;39.63
56944;BME280;42848;42.524;12.052;2022-08-03T13:26:08;96654.03;;;31.55;41.29
56944;BME280;42848;42.524;12.052;2022-08-03T13:28:34;96641.66;;;31.52;41.78
56944;BME280;42848;42.524;12.052;2022-08-03T13:31:00;96650.91;;;31.62;41.26
56944;BME280;42848;42.524;12.052;2022-08-03T13:33:26;96639.50;;;31.87;42.25